Peawanuck Airport
CYPO : now visible

Airfield :











YOU CAN JOIN US ON...

 
LOGIN :

Register | Disclaimer

   EN    FR    IT 

 









Legend :    VFR   Marginal VFR   IFR   Intensive IFR   Very Intensive IFR
Visi :
Ceiling :
>= 8 km
>= 3000ft
5 to 8 km
1000 to 3000 ft
1500m to 5 km
500 to 1000 ft
800 to 1500m
200 to 500 ft
< 800m
< 200 ft
Symbols :   Thunderstorms  Fog  Heavy snow  Heavy precipitations  Wind > 20 kt







- Airport Elevation : 173 ft
- IATA code : YPO


CYPO - Peawanuck

CURRENT METAR :
  • 211100Z AUTO 00000KT 3SM BR FEW001 M03/M03 A3016 RMK SLP218

EXPIRED METARs :
  • 211045Z AUTO 32002KT 5SM BR SCT001 M03/M03 A3016 RMK SLP217
  • 211041Z AUTO 32003KT 5SM BR SCT003 M03/M03 A3016 RMK SLP217
  • 211017Z AUTO 29002KT 5/8SM BR VV003 M03/M03 A3016 RMK SLP217
  • 211000Z AUTO 31002KT 1/4SM FZFG VV003 M03/M03 A3016 RMK SLP217
  • 210900Z AUTO 33002KT 1/2SM FZFG VV003 M02/M03 A3015 RMK SLP215
  • 210854Z AUTO 32002KT 1/2SM FZFG VV003 M02/M03 A3016 RMK SLP216
  • 210840Z AUTO VRB03KT 5/8SM BR VV003 M02/M03 A3016 RMK SLP217
  • 210800Z AUTO 31003KT 280V010 1/2SM FZFG VV003 M02/M02 A3016 RMK SLP217

TAF N/A
CZWG FIR / North America



MET'MAP, your aeronautical weather chart ! - Copyright ORBIFLY December 2007 - Disclaimer

ORBIFLY MET'MAP TEAM :

Programming & Development : Alexandra Zaïnal
Concept & Development : Baudouin d'Aumeries
Co-Development & Prog : Marc-Olivier Méhu
Technical & hardware support : Manuel Goepfert

Contact : metmap@orbifly.com




SOURCES & CREDITS :

   NOAA       Earth
Advisory